Time;durP1;ratioP1;P1;durP2;ratioP2;P2;SDS_P1;SDS_P2;PMS_P1;PMS_P2;Temp;Humidity;BMP_temperature;BMP_pressure;BME280_temperature;BME280_humidity;BME280_pressure;Samples;Min_cycle;Max_cycle;Signal;HPM_P1;HPM_P2
2023/06/20 00:03:13;;;;;;;6.63;4.50;;;22.60;74.80;;;;;;10448318;28;20013;-65
2023/06/20 00:08:14;;;;;;;5.53;3.90;;;22.60;74.80;;;;;;10446327;28;20039;-66
2023/06/20 00:13:17;;;;;;;6.32;4.03;;;22.60;74.90;;;;;;10441891;28;20044;-65
2023/06/20 00:18:18;;;;;;;6.18;4.03;;;22.60;75.00;;;;;;10446762;28;20036;-65
2023/06/20 00:23:18;;;;;;;5.45;4.10;;;22.60;75.00;;;;;;10450734;28;20032;-66
2023/06/20 00:28:19;;;;;;;6.05;4.03;;;22.60;75.10;;;;;;10436215;28;20038;-66
2023/06/20 00:33:19;;;;;;;7.38;4.55;;;22.60;75.10;;;;;;10452552;28;20049;-65
2023/06/20 00:38:20;;;;;;;7.55;4.03;;;22.50;75.20;;;;;;10458393;28;20484;-66
2023/06/20 00:43:21;;;;;;;5.40;3.85;;;22.50;75.20;;;;;;10454220;28;20019;-66
2023/06/20 00:48:21;;;;;;;6.38;4.28;;;22.60;75.40;;;;;;10443425;28;20025;-64
2023/06/20 00:53:22;;;;;;;6.63;4.32;;;22.50;75.40;;;;;;10441265;28;20027;-66
2023/06/20 00:58:22;;;;;;;6.40;4.22;;;22.50;75.40;;;;;;10448138;28;20024;-66
2023/06/20 01:03:23;;;;;;;6.53;4.32;;;22.40;75.40;;;;;;10448666;28;20593;-66
2023/06/20 01:08:58;;;;;;;7.28;4.03;;;22.40;75.40;;;;;;10453501;28;20322;-67
2023/06/20 01:14:27;;;;;;;6.15;4.20;;;22.40;75.60;;;;;;10456811;28;20033;-66
2023/06/20 01:20:12;;;;;;;6.15;4.10;;;22.40;75.70;;;;;;10433110;28;20430;-66
2023/06/20 01:25:23;;;;;;;5.50;4.22;;;22.40;75.80;;;;;;10442142;28;20040;-66
2023/06/20 01:30:30;;;;;;;7.93;4.25;;;22.30;75.70;;;;;;10454664;28;20037;-66
2023/06/20 01:35:32;;;;;;;5.43;3.80;;;22.30;75.70;;;;;;10442788;28;20556;-65
2023/06/20 01:40:34;;;;;;;5.80;3.75;;;22.30;75.70;;;;;;10444453;28;20415;-64
2023/06/20 01:45:39;;;;;;;6.85;4.20;;;22.30;75.80;;;;;;10439586;28;20025;-66
2023/06/20 01:50:40;;;;;;;5.90;3.90;;;22.30;75.80;;;;;;10442013;28;20090;-65
2023/06/20 01:55:42;;;;;;;7.47;4.60;;;22.20;75.70;;;;;;10444633;28;20024;-65
2023/06/20 02:00:43;;;;;;;7.78;4.22;;;22.20;75.80;;;;;;10446152;28;20146;-65
2023/06/20 02:05:47;;;;;;;7.07;4.68;;;22.20;75.90;;;;;;10442510;28;20064;-65
2023/06/20 02:10:49;;;;;;;6.97;4.82;;;22.20;75.90;;;;;;10442818;28;20517;-65
2023/06/20 02:15:54;;;;;;;5.10;3.83;;;22.20;76.00;;;;;;10433495;28;20048;-67
2023/06/20 02:20:55;;;;;;;7.03;4.10;;;22.20;76.00;;;;;;10434120;28;20074;-66
2023/06/20 02:26:07;;;;;;;7.30;4.20;;;22.10;76.00;;;;;;10448030;28;20127;-65
2023/06/20 02:31:15;;;;;;;7.45;4.63;;;22.10;76.10;;;;;;10434842;28;20107;-65
2023/06/20 02:36:19;;;;;;;6.93;4.32;;;22.10;76.10;;;;;;10434931;28;20021;-66
2023/06/20 02:41:20;;;;;;;6.15;4.10;;;22.10;76.10;;;;;;10435701;28;20032;-66
2023/06/20 02:46:30;;;;;;;6.30;4.22;;;22.10;76.10;;;;;;10440478;28;20021;-65
2023/06/20 02:51:37;;;;;;;6.57;4.55;;;22.10;76.20;;;;;;10434542;28;20035;-66
2023/06/20 02:56:41;;;;;;;5.15;3.97;;;22.10;76.30;;;;;;10447459;28;20540;-66
2023/06/20 03:01:47;;;;;;;7.45;4.65;;;22.00;76.20;;;;;;10438759;28;20068;-66
2023/06/20 03:06:51;;;;;;;7.10;4.22;;;22.00;76.40;;;;;;10447073;28;20029;-66
2023/06/20 03:11:51;;;;;;;8.60;4.60;;;22.00;76.40;;;;;;10431265;28;20485;-67
2023/06/20 03:16:52;;;;;;;5.50;4.05;;;22.00;76.40;;;;;;10440536;28;20027;-66
2023/06/20 03:21:54;;;;;;;5.30;4.13;;;21.90;76.40;;;;;;10448826;28;20248;-66
2023/06/20 03:26:54;;;;;;;7.80;5.10;;;21.90;76.50;;;;;;10443730;28;20041;-66
2023/06/20 03:31:55;;;;;;;7.15;4.53;;;21.90;76.50;;;;;;10450355;28;20017;-65
2023/06/20 03:36:55;;;;;;;10.30;5.25;;;21.90;76.50;;;;;;10434113;28;20028;-66
2023/06/20 03:41:56;;;;;;;7.88;5.38;;;21.90;76.50;;;;;;10439506;28;20017;-67
2023/06/20 03:46:56;;;;;;;7.93;5.45;;;21.90;76.60;;;;;;10450731;28;20029;-64
2023/06/20 03:51:57;;;;;;;8.13;5.40;;;21.90;76.60;;;;;;10450253;28;20100;-66
2023/06/20 03:56:58;;;;;;;9.13;5.07;;;21.90;76.60;;;;;;10456844;28;20074;-66
2023/06/20 04:01:58;;;;;;;7.68;5.38;;;21.90;76.60;;;;;;10459105;28;20472;-65
2023/06/20 04:06:59;;;;;;;7.88;5.20;;;21.80;76.60;;;;;;10445805;28;20373;-64
2023/06/20 04:11:59;;;;;;;7.63;5.00;;;21.80;76.70;;;;;;10438218;28;20021;-66
2023/06/20 04:17:00;;;;;;;7.95;5.22;;;21.80;76.70;;;;;;10435550;28;20503;-66
2023/06/20 04:22:00;;;;;;;6.18;4.85;;;21.80;76.70;;;;;;10448036;28;20699;-65
2023/06/20 04:27:02;;;;;;;6.75;4.93;;;21.80;76.70;;;;;;10453676;28;20028;-66
2023/06/20 04:32:03;;;;;;;7.15;4.78;;;21.80;76.70;;;;;;10448658;28;20528;-65
2023/06/20 04:37:03;;;;;;;6.95;5.10;;;21.80;76.70;;;;;;10459381;28;20119;-65
2023/06/20 04:42:04;;;;;;;7.63;5.60;;;21.80;76.80;;;;;;10454733;28;20051;-65
2023/06/20 04:47:05;;;;;;;8.52;5.70;;;21.80;76.80;;;;;;10450586;28;20033;-66
2023/06/20 04:52:09;;;;;;;7.85;5.53;;;21.80;76.80;;;;;;10443479;28;20492;-66
2023/06/20 04:57:09;;;;;;;9.18;5.10;;;21.80;76.80;;;;;;10455393;28;20036;-66
2023/06/20 05:02:10;;;;;;;8.77;5.40;;;21.80;76.90;;;;;;10453651;28;20488;-66
2023/06/20 05:07:10;;;;;;;7.75;5.28;;;21.80;76.90;;;;;;10452614;28;20400;-67
2023/06/20 05:12:11;;;;;;;9.55;5.18;;;21.80;76.90;;;;;;10455045;28;20024;-66
2023/06/20 05:17:11;;;;;;;8.10;5.07;;;21.80;76.90;;;;;;10455631;28;20021;-66
2023/06/20 05:22:12;;;;;;;8.43;5.20;;;21.70;76.90;;;;;;10448853;28;20096;-65
2023/06/20 05:27:13;;;;;;;6.95;5.38;;;21.80;77.00;;;;;;10455382;28;20020;-66
2023/06/20 05:32:13;;;;;;;8.63;5.75;;;21.70;77.00;;;;;;10447231;28;20102;-67
2023/06/20 05:37:14;;;;;;;6.35;5.20;;;21.70;77.00;;;;;;10445797;28;20021;-65
2023/06/20 05:42:16;;;;;;;8.35;5.50;;;21.70;77.00;;;;;;10438137;28;20018;-67
2023/06/20 05:47:20;;;;;;;5.55;4.72;;;21.70;77.00;;;;;;10432889;28;20083;-66
2023/06/20 05:52:21;;;;;;;7.03;5.55;;;21.80;77.00;;;;;;10435394;28;20100;-66
2023/06/20 05:57:22;;;;;;;7.50;5.50;;;21.70;76.90;;;;;;10435617;28;20032;-66
2023/06/20 06:02:22;;;;;;;7.47;5.28;;;21.80;76.90;;;;;;10425747;28;20035;-66
2023/06/20 06:07:23;;;;;;;5.78;4.55;;;21.80;76.90;;;;;;10440779;28;20029;-65
2023/06/20 06:12:24;;;;;;;7.25;5.20;;;21.80;76.80;;;;;;10431264;28;20594;-67
2023/06/20 06:17:26;;;;;;;7.30;4.85;;;21.80;76.80;;;;;;10439257;28;20104;-67
2023/06/20 06:22:27;;;;;;;7.18;4.97;;;21.80;76.90;;;;;;10442023;28;20013;-66
2023/06/20 06:27:27;;;;;;;6.32;4.93;;;21.80;76.90;;;;;;10441988;28;20032;-66
2023/06/20 06:32:28;;;;;;;6.80;4.80;;;21.80;76.80;;;;;;10440190;28;20035;-68
2023/06/20 06:37:30;;;;;;;6.13;4.65;;;21.90;77.00;;;;;;10440959;28;20035;-65
2023/06/20 06:42:31;;;;;;;6.90;5.22;;;21.90;77.00;;;;;;10433775;28;20397;-67
2023/06/20 06:47:32;;;;;;;8.27;5.43;;;21.90;77.10;;;;;;10432343;28;20024;-67
2023/06/20 06:52:34;;;;;;;7.03;5.18;;;21.90;77.10;;;;;;10435860;28;20032;-65
2023/06/20 06:57:35;;;;;;;7.72;5.35;;;21.90;77.20;;;;;;10435681;28;20028;-65
2023/06/20 07:02:35;;;;;;;7.93;5.00;;;21.90;77.20;;;;;;10446021;28;20023;-67
2023/06/20 07:07:36;;;;;;;7.68;4.88;;;21.90;77.30;;;;;;10440352;28;20044;-67
2023/06/20 07:12:36;;;;;;;6.90;5.28;;;21.90;77.20;;;;;;10451224;28;20044;-67
2023/06/20 07:17:37;;;;;;;7.80;5.47;;;22.00;77.40;;;;;;10445609;28;20056;-67
2023/06/20 07:22:38;;;;;;;6.70;5.13;;;22.00;77.30;;;;;;10441997;28;20025;-68
2023/06/20 07:27:38;;;;;;;6.00;4.88;;;22.00;77.20;;;;;;10448353;28;20091;-67
2023/06/20 07:32:40;;;;;;;7.38;5.22;;;22.10;77.40;;;;;;10436255;28;20020;-64
2023/06/20 07:37:41;;;;;;;6.85;5.28;;;22.10;77.40;;;;;;10447429;28;20050;-65
2023/06/20 07:42:41;;;;;;;8.55;5.32;;;22.10;77.50;;;;;;10448473;28;20028;-63
2023/06/20 07:47:42;;;;;;;8.63;5.45;;;22.10;77.40;;;;;;10442453;28;20028;-65
2023/06/20 07:52:43;;;;;;;8.10;5.00;;;22.20;77.50;;;;;;10447073;28;20043;-65
2023/06/20 07:57:44;;;;;;;6.90;5.10;;;22.20;77.40;;;;;;10449257;28;20961;-65
2023/06/20 08:02:44;;;;;;;7.68;5.57;;;22.20;77.30;;;;;;10447148;28;20036;-66
2023/06/20 08:07:45;;;;;;;6.63;5.40;;;22.20;77.20;;;;;;10447544;28;20032;-65
2023/06/20 08:12:45;;;;;;;6.75;5.03;;;22.30;77.30;;;;;;10441482;28;20123;-65
2023/06/20 08:17:46;;;;;;;7.50;5.20;;;22.30;77.50;;;;;;10440061;28;20029;-65
2023/06/20 08:22:46;;;;;;;7.05;5.53;;;22.30;77.60;;;;;;10437140;28;20029;-65
2023/06/20 08:27:47;;;;;;;15.93;9.52;;;22.30;77.60;;;;;;10458916;28;20512;-65
2023/06/20 08:32:48;;;;;;;19.85;9.27;;;22.30;79.30;;;;;;10446492;28;20037;-65
2023/06/20 08:37:48;;;;;;;13.98;9.98;;;22.40;79.90;;;;;;10444086;28;20060;-65
2023/06/20 08:42:49;;;;;;;14.98;10.85;;;22.50;80.40;;;;;;10445707;28;20045;-66
2023/06/20 08:47:49;;;;;;;19.15;12.50;;;22.50;81.10;;;;;;10445354;28;20388;-65
2023/06/20 08:52:53;;;;;;;15.38;11.15;;;22.50;82.00;;;;;;10444707;28;20041;-65
2023/06/20 08:57:55;;;;;;;17.10;11.02;;;22.50;82.90;;;;;;10461011;28;20564;-64
2023/06/20 09:02:58;;;;;;;14.57;10.10;;;22.60;82.90;;;;;;10438881;28;20024;-64
2023/06/20 09:07:59;;;;;;;14.27;9.63;;;22.70;83.70;;;;;;10453009;28;20411;-68
2023/06/20 09:12:59;;;;;;;14.93;9.25;;;22.90;82.90;;;;;;10438330;28;20055;-67
2023/06/20 09:18:01;;;;;;;13.45;8.52;;;22.90;82.60;;;;;;10437077;28;20051;-67
2023/06/20 09:23:02;;;;;;;8.65;7.22;;;22.90;82.30;;;;;;10445152;28;20021;-66
2023/06/20 09:28:12;;;;;;;9.90;7.63;;;22.90;82.20;;;;;;10447292;28;20036;-67
2023/06/20 09:33:14;;;;;;;8.85;6.53;;;22.90;82.00;;;;;;10443755;28;20061;-66
2023/06/20 09:38:15;;;;;;;10.65;6.60;;;23.00;81.80;;;;;;10447183;28;20105;-67
2023/06/20 09:43:15;;;;;;;9.32;6.93;;;23.00;81.70;;;;;;10451398;28;20148;-67
2023/06/20 09:48:17;;;;;;;8.13;6.53;;;23.10;81.70;;;;;;10453537;28;20109;-65
2023/06/20 09:53:33;;;;;;;7.68;6.40;;;23.10;81.40;;;;;;10437885;28;20013;-67
2023/06/20 09:58:36;;;;;;;8.13;6.05;;;23.10;81.70;;;;;;10444546;28;20024;-67
2023/06/20 10:03:37;;;;;;;8.80;6.43;;;23.20;81.90;;;;;;10448961;28;20013;-67
2023/06/20 10:08:40;;;;;;;7.50;6.00;;;23.20;81.20;;;;;;10444124;28;20067;-67
2023/06/20 10:13:41;;;;;;;8.27;5.95;;;23.40;81.20;;;;;;10443228;28;20029;-67
2023/06/20 10:18:43;;;;;;;8.15;6.00;;;23.40;81.10;;;;;;10444588;28;20021;-67
2023/06/20 10:23:44;;;;;;;7.25;5.70;;;23.40;81.00;;;;;;10427759;28;20013;-66
2023/06/20 10:28:44;;;;;;;8.32;6.07;;;23.50;81.00;;;;;;10435954;28;20052;-67
2023/06/20 10:33:45;;;;;;;6.60;5.90;;;23.60;80.80;;;;;;10436274;28;20503;-67
2023/06/20 10:38:52;;;;;;;7.53;5.95;;;23.60;80.70;;;;;;10441871;28;20077;-67
2023/06/20 10:43:52;;;;;;;7.15;5.82;;;23.70;80.60;;;;;;10437018;28;20434;-67
2023/06/20 10:48:53;;;;;;;7.70;5.60;;;23.80;80.50;;;;;;10446721;28;20032;-66
2023/06/20 10:54:07;;;;;;;6.97;6.05;;;23.80;80.30;;;;;;10442927;28;20036;-67
2023/06/20 10:59:16;;;;;;;7.47;5.32;;;23.90;80.10;;;;;;10442967;28;20093;-67
2023/06/20 11:04:18;;;;;;;7.40;5.47;;;24.00;80.00;;;;;;10448549;28;20068;-66
2023/06/20 11:09:20;;;;;;;8.65;5.53;;;24.10;79.80;;;;;;10447596;28;20067;-66
2023/06/20 11:14:24;;;;;;;7.97;5.18;;;24.20;79.60;;;;;;10444717;28;20029;-67
2023/06/20 11:19:27;;;;;;;7.90;5.40;;;24.20;79.60;;;;;;10452668;28;20397;-67
2023/06/20 11:24:30;;;;;;;7.32;5.45;;;24.20;79.40;;;;;;10448761;28;20033;-67
2023/06/20 11:29:37;;;;;;;6.63;5.05;;;24.30;79.40;;;;;;10445648;28;20108;-68
2023/06/20 11:35:00;;;;;;;7.65;5.18;;;24.30;79.30;;;;;;10445080;28;20086;-66
2023/06/20 11:40:01;;;;;;;6.55;5.28;;;24.40;79.30;;;;;;10447099;28;20033;-67
2023/06/20 11:45:09;;;;;;;6.47;5.20;;;24.40;79.10;;;;;;10435475;28;20024;-67
2023/06/20 11:50:25;;;;;;;8.30;5.53;;;24.40;79.10;;;;;;10447892;28;20033;-66
2023/06/20 11:55:56;;;;;;;6.07;4.90;;;24.50;79.10;;;;;;10448284;28;20056;-67
2023/06/20 12:01:23;;;;;;;6.72;5.55;;;24.60;79.00;;;;;;10433208;28;20052;-66
2023/06/20 12:06:28;;;;;;;7.53;5.13;;;24.70;78.90;;;;;;10438186;28;20021;-66
2023/06/20 12:11:30;;;;;;;6.47;4.88;;;24.60;78.80;;;;;;10441718;28;20523;-66
2023/06/20 12:16:31;;;;;;;7.82;5.35;;;24.70;78.80;;;;;;10435536;28;20552;-65
2023/06/20 12:21:32;;;;;;;6.45;4.80;;;24.70;78.80;;;;;;10447318;28;20017;-64
2023/06/20 12:26:33;;;;;;;6.10;4.78;;;24.70;78.80;;;;;;10444548;28;20029;-64
2023/06/20 12:31:34;;;;;;;7.47;5.45;;;24.80;78.80;;;;;;10446692;28;20083;-66
2023/06/20 12:36:34;;;;;;;5.97;5.28;;;24.80;78.70;;;;;;10444945;28;20453;-66
2023/06/20 12:41:35;;;;;;;5.65;4.93;;;24.90;78.60;;;;;;10454160;28;20021;-66
2023/06/20 12:46:37;;;;;;;5.65;5.07;;;25.00;78.40;;;;;;10441865;28;20516;-65
2023/06/20 12:51:44;;;;;;;5.80;5.15;;;25.10;78.30;;;;;;10452822;28;20032;-66
2023/06/20 12:56:45;;;;;;;8.38;5.22;;;25.20;78.20;;;;;;10446867;28;20029;-65
2023/06/20 13:01:46;;;;;;;6.00;5.03;;;25.30;78.20;;;;;;10445817;28;20021;-65
2023/06/20 13:06:47;;;;;;;5.63;5.00;;;25.30;78.10;;;;;;10447973;28;20032;-66
2023/06/20 13:11:48;;;;;;;7.18;5.43;;;25.40;78.00;;;;;;10439329;28;20030;-66
2023/06/20 13:16:49;;;;;;;6.18;5.07;;;25.50;77.90;;;;;;10445754;28;20613;-66
2023/06/20 13:21:49;;;;;;;7.18;5.72;;;25.60;77.80;;;;;;10452164;28;20021;-66
2023/06/20 13:26:50;;;;;;;5.65;5.00;;;25.70;77.60;;;;;;10442777;28;20048;-65
2023/06/20 13:31:51;;;;;;;5.57;4.88;;;25.80;77.50;;;;;;10447765;28;20123;-65
2023/06/20 13:36:51;;;;;;;5.75;5.15;;;25.80;77.40;;;;;;10443709;28;20043;-66
2023/06/20 13:41:53;;;;;;;6.78;5.25;;;25.90;77.30;;;;;;10446719;28;20417;-65
2023/06/20 13:46:54;;;;;;;5.78;4.75;;;26.00;77.20;;;;;;10440347;28;20045;-66
2023/06/20 13:51:55;;;;;;;5.25;4.75;;;26.10;77.00;;;;;;10444908;28;20495;-68
2023/06/20 13:56:55;;;;;;;6.28;5.03;;;26.20;76.90;;;;;;10450584;28;20508;-68
2023/06/20 14:01:56;;;;;;;7.07;5.20;;;26.30;76.80;;;;;;10442010;28;20032;-68
2023/06/20 14:06:56;;;;;;;5.93;4.82;;;26.30;76.80;;;;;;10441759;28;20073;-68
2023/06/20 14:11:57;;;;;;;5.50;4.35;;;26.30;76.90;;;;;;10442547;28;20033;-68
2023/06/20 14:16:58;;;;;;;5.28;4.78;;;26.30;76.80;;;;;;10446442;28;20029;-69
2023/06/20 14:21:58;;;;;;;5.72;5.10;;;26.40;76.80;;;;;;10445163;28;20071;-69
2023/06/20 14:26:59;;;;;;;7.25;5.70;;;26.40;76.90;;;;;;10441812;28;20037;-66
2023/06/20 14:32:00;;;;;;;5.90;5.30;;;26.40;76.90;;;;;;10437375;28;20103;-71
2023/06/20 14:37:01;;;;;;;5.78;5.15;;;26.60;76.70;;;;;;10445563;28;20035;-68
2023/06/20 14:42:01;;;;;;;5.88;5.28;;;26.70;76.60;;;;;;10433440;28;20081;-69
2023/06/20 14:47:02;;;;;;;5.78;5.18;;;26.70;76.50;;;;;;10444220;28;20025;-70
2023/06/20 14:52:03;;;;;;;6.10;5.47;;;26.70;76.50;;;;;;10442608;28;20029;-68
2023/06/20 14:57:05;;;;;;;5.85;4.93;;;26.70;76.50;;;;;;10450460;28;20496;-68
2023/06/20 15:02:05;;;;;;;6.18;5.55;;;26.70;76.50;;;;;;10445675;28;20044;-69
2023/06/20 15:07:06;;;;;;;6.03;5.43;;;26.70;76.60;;;;;;10440512;28;20493;-68
2023/06/20 15:12:07;;;;;;;6.32;5.72;;;26.70;76.70;;;;;;10442636;28;20380;-69
2023/06/20 15:17:08;;;;;;;6.55;5.63;;;26.80;76.70;;;;;;10445686;28;20029;-69
2023/06/20 15:22:08;;;;;;;5.97;5.38;;;26.80;76.60;;;;;;10433709;28;20024;-68
2023/06/20 15:27:09;;;;;;;6.00;5.15;;;26.80;76.50;;;;;;10443702;28;20024;-70
2023/06/20 15:32:10;;;;;;;6.22;5.60;;;26.90;76.50;;;;;;10453180;28;20385;-69
2023/06/20 15:37:10;;;;;;;7.78;5.70;;;26.90;76.40;;;;;;10451471;28;20399;-68
2023/06/20 15:42:11;;;;;;;6.40;5.75;;;26.90;76.50;;;;;;10448053;28;20029;-70
2023/06/20 15:47:12;;;;;;;6.78;5.60;;;26.90;76.70;;;;;;10451095;28;20024;-69
2023/06/20 15:52:13;;;;;;;5.63;5.03;;;26.80;76.80;;;;;;10450047;28;20113;-68
2023/06/20 15:57:14;;;;;;;5.90;5.20;;;26.80;76.90;;;;;;10444447;28;20025;-68
2023/06/20 16:02:18;;;;;;;5.93;5.07;;;26.70;77.00;;;;;;10440489;28;20028;-69
2023/06/20 16:07:19;;;;;;;5.78;5.25;;;26.60;77.10;;;;;;10433155;28;20033;-67
2023/06/20 16:12:20;;;;;;;5.97;5.22;;;26.60;77.30;;;;;;10428586;28;20021;-69
2023/06/20 16:17:21;;;;;;;6.68;5.32;;;26.50;77.40;;;;;;10438043;28;20056;-68
2023/06/20 16:22:21;;;;;;;6.50;5.63;;;26.50;77.50;;;;;;10439562;28;20017;-68
2023/06/20 16:27:22;;;;;;;6.03;5.10;;;26.40;77.60;;;;;;10438447;28;20037;-68
2023/06/20 16:32:28;;;;;;;5.60;5.00;;;26.40;77.70;;;;;;10440968;28;20024;-68
2023/06/20 16:37:28;;;;;;;6.18;5.30;;;26.40;77.70;;;;;;10445347;28;20025;-70
2023/06/20 16:42:30;;;;;;;5.65;5.15;;;26.30;77.80;;;;;;10445239;28;20048;-72
2023/06/20 16:47:35;;;;;;;5.57;4.97;;;26.30;77.90;;;;;;10441500;28;20036;-71
2023/06/20 16:52:36;;;;;;;5.60;5.10;;;26.30;78.10;;;;;;10432510;28;20020;-70
2023/06/20 16:57:36;;;;;;;6.78;5.35;;;26.20;78.70;;;;;;10440347;28;20392;-71
2023/06/20 17:02:37;;;;;;;5.65;5.00;;;26.20;78.30;;;;;;10436040;28;20407;-70
2023/06/20 17:07:38;;;;;;;5.95;5.10;;;26.20;78.50;;;;;;10441122;28;20093;-70
2023/06/20 17:12:38;;;;;;;5.85;5.28;;;26.20;78.70;;;;;;10437571;28;20032;-70
2023/06/20 17:17:39;;;;;;;5.55;4.80;;;26.10;78.80;;;;;;10419759;28;20029;-70
2023/06/20 17:22:41;;;;;;;4.97;4.47;;;26.00;79.10;;;;;;10440982;28;20033;-71
2023/06/20 17:27:42;;;;;;;5.53;4.55;;;25.90;79.50;;;;;;10439633;28;20041;-71
2023/06/20 17:32:43;;;;;;;9.30;4.60;;;25.80;79.70;;;;;;10441615;28;20489;-71
2023/06/20 17:37:44;;;;;;;7.13;3.90;;;25.80;80.20;;;;;;10432511;28;20036;-70
2023/06/20 17:42:44;;;;;;;4.82;3.85;;;25.70;80.30;;;;;;10432334;28;20025;-70
2023/06/20 17:47:45;;;;;;;5.22;3.75;;;25.70;80.50;;;;;;10443464;28;20114;-70
2023/06/20 17:52:46;;;;;;;5.22;3.50;;;25.60;80.60;;;;;;10428768;28;20025;-70
2023/06/20 17:57:46;;;;;;;5.63;3.58;;;25.50;80.80;;;;;;10435578;28;20108;-71
2023/06/20 18:02:47;;;;;;;4.90;3.35;;;25.50;81.00;;;;;;10434765;28;20033;-69
2023/06/20 18:07:47;;;;;;;4.45;2.90;;;25.40;81.10;;;;;;10434314;28;20409;-70
2023/06/20 18:12:49;;;;;;;3.65;2.88;;;25.40;81.30;;;;;;10436355;28;20032;-72
2023/06/20 18:17:50;;;;;;;4.45;3.00;;;25.30;81.30;;;;;;10446844;28;20396;-70
2023/06/20 18:22:51;;;;;;;4.05;2.50;;;25.30;81.50;;;;;;10441870;28;20064;-70
2023/06/20 18:27:51;;;;;;;4.68;2.58;;;25.20;82.10;;;;;;10441075;28;20131;-69
2023/06/20 18:32:52;;;;;;;3.65;2.25;;;25.20;81.70;;;;;;10434080;28;20024;-71
2023/06/20 18:37:52;;;;;;;2.50;2.30;;;25.20;81.80;;;;;;10430844;28;20116;-68
2023/06/20 18:42:54;;;;;;;3.33;2.53;;;25.10;81.90;;;;;;10432308;28;20024;-70
2023/06/20 18:47:55;;;;;;;3.13;2.40;;;25.10;82.00;;;;;;10438509;28;20093;-68
2023/06/20 18:52:56;;;;;;;3.20;2.17;;;25.00;82.10;;;;;;10438469;28;20480;-71
2023/06/20 18:57:56;;;;;;;3.45;2.25;;;25.00;82.20;;;;;;10447641;28;20028;-70
2023/06/20 19:02:57;;;;;;;5.00;2.03;;;25.00;82.30;;;;;;10449274;28;20021;-68
2023/06/20 19:07:58;;;;;;;3.35;2.03;;;25.00;82.40;;;;;;10441271;28;20032;-70
2023/06/20 19:12:59;;;;;;;4.05;2.25;;;24.90;82.50;;;;;;10437085;28;20034;-71
2023/06/20 19:18:00;;;;;;;2.72;1.83;;;24.90;82.60;;;;;;10440184;28;20023;-71
2023/06/20 19:23:02;;;;;;;3.03;2.10;;;24.90;82.70;;;;;;10439079;28;20022;-68
2023/06/20 19:28:02;;;;;;;2.58;2.17;;;24.80;82.70;;;;;;10440956;28;20041;-70
2023/06/20 19:33:05;;;;;;;2.55;1.70;;;24.80;82.80;;;;;;10442824;28;20508;-70
2023/06/20 19:38:06;;;;;;;3.33;1.67;;;24.70;82.80;;;;;;10428620;28;20031;-68
2023/06/20 19:43:07;;;;;;;2.80;1.77;;;24.70;83.00;;;;;;10432215;28;20038;-67
2023/06/20 19:48:07;;;;;;;3.70;1.83;;;24.70;83.00;;;;;;10444922;28;20032;-70
2023/06/20 19:53:08;;;;;;;1.98;1.70;;;24.70;83.10;;;;;;10438450;28;20029;-68
2023/06/20 19:58:09;;;;;;;2.10;1.40;;;24.60;83.20;;;;;;10446905;28;20021;-69
2023/06/20 20:03:09;;;;;;;1.88;1.60;;;24.60;83.30;;;;;;10439740;28;20021;-70
2023/06/20 20:08:10;;;;;;;2.45;1.70;;;24.50;83.30;;;;;;10433698;28;20105;-69
2023/06/20 20:13:11;;;;;;;2.53;1.58;;;24.50;83.40;;;;;;10445843;28;20020;-68
2023/06/20 20:18:12;;;;;;;2.08;1.55;;;24.50;83.50;;;;;;10435512;28;20115;-70
2023/06/20 20:23:12;;;;;;;1.65;1.35;;;24.40;83.50;;;;;;10440872;28;20016;-68
2023/06/20 20:28:13;;;;;;;2.15;1.80;;;24.40;83.60;;;;;;10437566;28;20408;-69
2023/06/20 20:33:14;;;;;;;2.05;1.55;;;24.40;83.60;;;;;;10442246;28;20028;-69
2023/06/20 20:38:18;;;;;;;3.30;1.60;;;24.40;83.80;;;;;;10445912;28;20083;-70
2023/06/20 20:43:20;;;;;;;2.72;1.50;;;24.40;83.80;;;;;;10441852;28;20029;-71
2023/06/20 20:48:22;;;;;;;1.70;1.40;;;24.30;83.90;;;;;;10443351;28;20124;-69
2023/06/20 20:53:22;;;;;;;2.03;1.50;;;24.20;83.90;;;;;;10417636;28;20508;-71
2023/06/20 20:58:23;;;;;;;3.20;1.70;;;24.20;84.60;;;;;;10425802;28;20120;-68
2023/06/20 21:03:24;;;;;;;2.22;1.70;;;24.20;84.10;;;;;;10436426;28;20013;-68
2023/06/20 21:08:24;;;;;;;2.75;1.48;;;24.10;84.10;;;;;;10436779;28;20277;-72
2023/06/20 21:13:25;;;;;;;2.08;1.60;;;24.10;84.20;;;;;;10427967;28;20026;-71
2023/06/20 21:18:25;;;;;;;2.65;1.80;;;24.10;84.30;;;;;;10425609;28;20033;-72
2023/06/20 21:23:26;;;;;;;4.25;1.70;;;24.10;84.40;;;;;;10433125;28;20489;-72
2023/06/20 21:28:27;;;;;;;2.30;1.70;;;24.10;84.40;;;;;;10424873;28;20102;-70
2023/06/20 21:33:31;;;;;;;2.00;1.80;;;24.00;84.50;;;;;;10424845;28;20167;-71
2023/06/20 21:38:32;;;;;;;2.10;1.55;;;24.00;84.60;;;;;;10445967;28;20029;-71
2023/06/20 21:43:35;;;;;;;3.38;1.92;;;23.90;84.70;;;;;;10437748;28;20032;-70
2023/06/20 21:48:36;;;;;;;2.92;2.03;;;24.00;84.80;;;;;;10438371;28;20017;-71
2023/06/20 21:53:37;;;;;;;2.17;1.77;;;23.90;84.80;;;;;;10440888;28;20026;-70
2023/06/20 21:58:38;;;;;;;2.97;1.88;;;23.90;84.90;;;;;;10431894;28;20013;-70
2023/06/20 22:03:39;;;;;;;4.40;1.70;;;23.90;85.00;;;;;;10438684;28;20373;-70
2023/06/20 22:08:40;;;;;;;3.65;2.03;;;23.90;85.00;;;;;;10434875;28;20021;-70
2023/06/20 22:13:42;;;;;;;2.70;1.83;;;23.80;85.10;;;;;;10436962;28;20029;-70
2023/06/20 22:18:43;;;;;;;2.50;1.88;;;23.80;85.20;;;;;;10434176;28;20017;-71
2023/06/20 22:23:43;;;;;;;4.30;2.00;;;23.80;85.20;;;;;;10441589;28;20028;-70
2023/06/20 22:28:44;;;;;;;7.80;2.03;;;23.80;85.30;;;;;;10434267;28;20497;-70
2023/06/20 22:33:45;;;;;;;3.88;2.20;;;23.80;85.40;;;;;;10444194;28;20037;-70
2023/06/20 22:38:46;;;;;;;3.25;2.00;;;23.70;85.40;;;;;;10432415;28;20033;-72
2023/06/20 22:43:47;;;;;;;2.95;2.10;;;23.70;85.50;;;;;;10437471;28;20350;-72
2023/06/20 22:48:47;;;;;;;3.20;1.95;;;23.70;85.60;;;;;;10434938;28;20065;-70
2023/06/20 22:53:48;;;;;;;3.97;2.30;;;23.60;85.60;;;;;;10441804;28;20052;-71
2023/06/20 22:58:48;;;;;;;3.28;2.17;;;23.60;85.70;;;;;;10448925;28;20033;-70
2023/06/20 23:03:49;;;;;;;2.47;1.88;;;23.60;85.70;;;;;;10449836;28;20362;-70
2023/06/20 23:08:49;;;;;;;4.10;2.17;;;23.60;85.80;;;;;;10448880;28;20501;-71
2023/06/20 23:13:50;;;;;;;3.10;2.38;;;23.60;85.80;;;;;;10453239;28;20147;-70
2023/06/20 23:18:53;;;;;;;4.57;2.50;;;23.50;85.80;;;;;;10447942;28;20064;-71
2023/06/20 23:23:54;;;;;;;3.63;2.25;;;23.50;85.80;;;;;;10439661;28;20028;-70
2023/06/20 23:28:54;;;;;;;5.57;2.83;;;23.50;85.90;;;;;;10453889;28;20034;-69
2023/06/20 23:33:55;;;;;;;3.55;2.65;;;23.40;85.90;;;;;;10438826;28;20016;-71
2023/06/20 23:38:56;;;;;;;8.10;2.63;;;23.40;86.00;;;;;;10438131;28;20425;-72
2023/06/20 23:43:57;;;;;;;5.55;2.95;;;23.40;86.20;;;;;;10439926;28;20500;-70
2023/06/20 23:48:58;;;;;;;4.45;2.90;;;23.30;86.00;;;;;;10458400;28;20367;-71
2023/06/20 23:53:59;;;;;;;7.35;2.97;;;23.30;86.00;;;;;;10451439;28;20083;-71
2023/06/20 23:59:02;;;;;;;4.22;3.15;;;23.30;86.10;;;;;;10441912;28;20040;-71
